Time;durP1;ratioP1;P1;durP2;ratioP2;P2;SDS_P1;SDS_P2;PMS_P1;PMS_P2;Temp;Humidity;BMP_temperature;BMP_pressure;BME280_temperature;BME280_humidity;BME280_pressure;Samples;Min_cycle;Max_cycle;Signal;HPM_P1;HPM_P2
2022/04/22 00:06:13;;;;;;;;;;;13.00;54.00;;;;;;20751510;28;19928;-66
2022/04/22 00:16:15;;;;;;;;;;;13.00;55.70;;;;;;20751634;28;20001;-62
2022/04/22 00:26:17;;;;;;;;;;;12.90;56.70;;;;;;20749655;28;19960;-65
2022/04/22 00:36:18;;;;;;;;;;;12.90;57.10;;;;;;20752467;28;20347;-66
2022/04/22 00:46:20;;;;;;;;;;;12.70;58.80;;;;;;20765284;28;20024;-64
2022/04/22 00:56:21;;;;;;;;;;;12.60;59.10;;;;;;20764443;28;20011;-65
2022/04/22 01:16:43;;;;;;;;;;;12.70;58.80;;;;;;20763374;28;19921;-61
2022/04/22 01:26:48;;;;;;;;;;;12.60;59.10;;;;;;20762498;28;20001;-61
2022/04/22 01:36:53;;;;;;;;;;;12.60;59.30;;;;;;20761701;28;19925;-65
2022/04/22 01:47:04;;;;;;;;;;;12.40;60.60;;;;;;20760044;28;20383;-65
2022/04/22 01:57:08;;;;;;;;;;;12.30;61.40;;;;;;20760411;28;20017;-63
2022/04/22 02:07:25;;;;;;;;;;;12.30;61.60;;;;;;20759727;28;19928;-64
2022/04/22 02:17:32;;;;;;;;;;;12.30;61.40;;;;;;20758546;28;19921;-59
2022/04/22 02:38:02;;;;;;;;;;;12.20;63.50;;;;;;20756572;28;19928;-65
2022/04/22 02:48:05;;;;;;;;;;;12.20;63.60;;;;;;20755340;28;19921;-64
2022/04/22 02:58:07;;;;;;;;;;;12.10;63.30;;;;;;20756322;28;20390;-63
2022/04/22 03:08:09;;;;;;;;;;;12.10;63.20;;;;;;20756425;28;19921;-65
2022/04/22 03:18:13;;;;;;;;;;;12.10;63.50;;;;;;20755215;28;20019;-67
2022/04/22 03:28:20;;;;;;;;;;;12.20;63.40;;;;;;20753197;28;19932;-64
2022/04/22 03:38:27;;;;;;;;;;;12.20;63.00;;;;;;20752985;28;20398;-61
2022/04/22 03:48:31;;;;;;;;;;;12.20;63.50;;;;;;20751713;28;20383;-62
2022/04/22 03:58:33;;;;;;;;;;;12.00;64.30;;;;;;20751550;28;19921;-61
2022/04/22 04:08:34;;;;;;;;;;;12.00;63.80;;;;;;20750589;28;20414;-64
2022/04/22 04:18:40;;;;;;;;;;;12.00;63.80;;;;;;20749446;28;20015;-62
2022/04/22 04:28:42;;;;;;;;;;;12.00;64.40;;;;;;20750216;28;19990;-66
2022/04/22 04:38:43;;;;;;;;;;;11.80;64.50;;;;;;20749010;28;19960;-67
2022/04/22 04:48:45;;;;;;;;;;;11.80;64.40;;;;;;20748285;28;19928;-68
2022/04/22 04:58:47;;;;;;;;;;;11.70;64.70;;;;;;20750097;28;20016;-70
2022/04/22 05:08:48;;;;;;;;;;;11.70;66.00;;;;;;20751102;28;19929;-67
2022/04/22 05:18:50;;;;;;;;;;;11.70;65.90;;;;;;20748840;28;20302;-68
2022/04/22 05:28:52;;;;;;;;;;;11.70;67.10;;;;;;20758052;28;20020;-69
2022/04/22 05:38:53;;;;;;;;;;;11.50;69.10;;;;;;20761868;28;19922;-65
2022/04/22 05:48:54;;;;;;;;;;;11.40;71.20;;;;;;20760104;28;19957;-70
2022/04/22 05:58:57;;;;;;;;;;;;;;;;;;20760177;28;19961;-70
2022/04/22 06:19:18;;;;;;;;;;;11.20;73.70;;;;;;20760931;28;19921;-69
2022/04/22 06:29:20;;;;;;;;;;;11.40;74.30;;;;;;20757867;28;20027;-70
2022/04/22 06:39:21;;;;;;;;;;;11.60;73.30;;;;;;20756413;28;19961;-64
2022/04/22 06:49:23;;;;;;;;;;;11.70;73.30;;;;;;20756004;28;20335;-68
2022/04/22 06:59:25;;;;;;;;;;;11.90;72.30;;;;;;20755001;28;19929;-67
2022/04/22 07:09:26;;;;;;;;;;;12.00;71.30;;;;;;20754867;28;19975;-68
2022/04/22 07:19:27;;;;;;;;;;;12.00;69.80;;;;;;20753750;28;19964;-65
2022/04/22 07:29:30;;;;;;;;;;;12.00;69.80;;;;;;20753214;28;19922;-62
2022/04/22 07:39:31;;;;;;;;;;;12.10;70.50;;;;;;20751593;28;19957;-58
2022/04/22 07:49:32;;;;;;;;;;;12.20;69.10;;;;;;20746895;28;20434;-55
2022/04/22 07:59:34;;;;;;;;;;;13.00;66.20;;;;;;20749091;28;19973;-58
2022/04/22 08:09:35;;;;;;;;;;;13.40;64.30;;;;;;20750466;28;20330;-58
2022/04/22 08:19:36;;;;;;;;;;;13.40;65.10;;;;;;20746274;28;19968;-56
2022/04/22 08:29:37;;;;;;;;;;;13.40;64.90;;;;;;20677345;28;19928;-62
2022/04/22 08:39:39;;;;;;;;;;;13.30;65.80;;;;;;20668469;28;19991;-61
2022/04/22 08:49:59;;;;;;;;;;;13.20;64.60;;;;;;20667547;28;20028;-61
2022/04/22 09:00:01;;;;;;;;;;;13.10;65.30;;;;;;20675266;28;19933;-61
2022/04/22 09:10:02;;;;;;;;;;;12.80;67.00;;;;;;20685082;28;19961;-61
2022/04/22 09:20:04;;;;;;;;;;;12.50;68.30;;;;;;20682122;28;19922;-61
2022/04/22 09:30:11;;;;;;;;;;;12.70;67.80;;;;;;20682811;28;19922;-61
2022/04/22 09:50:40;;;;;;;;;;;12.60;68.20;;;;;;20682340;28;19928;-61
2022/04/22 10:00:42;;;;;;;;;;;12.90;67.80;;;;;;20686172;28;19921;-65
2022/04/22 10:10:43;;;;;;;;;;;13.10;66.60;;;;;;20678010;28;19973;-67
2022/04/22 10:20:46;;;;;;;;;;;13.70;65.10;;;;;;20678150;28;19943;-64
2022/04/22 10:30:50;;;;;;;;;;;13.40;64.80;;;;;;20785901;28;19921;-63
2022/04/22 10:40:51;;;;;;;;;;;13.30;65.80;;;;;;20757531;28;19925;-61
2022/04/22 10:50:55;;;;;;;;;;;13.50;65.30;;;;;;20757243;28;20338;-69
2022/04/22 11:00:57;;;;;;;;;;;13.00;67.70;;;;;;20757070;28;19921;-61
2022/04/22 11:11:09;;;;;;;;;;;12.90;68.70;;;;;;20759194;28;20391;-60
2022/04/22 11:21:19;;;;;;;;;;;12.60;70.50;;;;;;20755944;28;20475;-60
2022/04/22 11:31:25;;;;;;;;;;;12.40;70.90;;;;;;20754305;28;19962;-58
2022/04/22 11:41:26;;;;;;;;;;;12.30;73.20;;;;;;20751875;28;20019;-60
2022/04/22 11:51:28;;;;;;;;;;;12.30;74.60;;;;;;20753181;28;20005;-61
2022/04/22 12:11:56;;;;;;;;;;;12.20;74.60;;;;;;20750877;28;19922;-62
2022/04/22 12:21:58;;;;;;;;;;;12.20;76.50;;;;;;20751236;28;19929;-61
2022/04/22 12:31:59;;;;;;;;;;;12.40;76.20;;;;;;20748019;28;19922;-59
2022/04/22 12:42:01;;;;;;;;;;;12.70;74.30;;;;;;20748759;28;19972;-60
2022/04/22 12:52:09;;;;;;;;;;;12.70;74.30;;;;;;20748195;28;19929;-60
2022/04/22 13:02:11;;;;;;;;;;;12.60;75.40;;;;;;20748656;28;20017;-59
2022/04/22 13:12:13;;;;;;;;;;;12.50;75.10;;;;;;20748828;28;20012;-58
2022/04/22 13:22:14;;;;;;;;;;;12.50;73.80;;;;;;20747811;28;20089;-60
2022/04/22 13:32:15;;;;;;;;;;;12.50;74.20;;;;;;20747284;28;19967;-61
2022/04/22 13:42:18;;;;;;;;;;;12.40;74.90;;;;;;20745708;28;19928;-61
2022/04/22 13:52:24;;;;;;;;;;;12.30;76.40;;;;;;20760132;28;19921;-61
2022/04/22 14:02:25;;;;;;;;;;;12.20;76.00;;;;;;20760122;28;19995;-59
2022/04/22 14:12:26;;;;;;;;;;;12.20;74.50;;;;;;20758737;28;19968;-60
2022/04/22 14:22:27;;;;;;;;;;;12.20;74.40;;;;;;20759050;28;20367;-61
2022/04/22 14:32:29;;;;;;;;;;;12.10;75.00;;;;;;20757849;28;20395;-58
2022/04/22 14:42:31;;;;;;;;;;;12.00;74.80;;;;;;20757016;28;19971;-62
2022/04/22 14:52:32;;;;;;;;;;;11.90;74.70;;;;;;20756917;28;20287;-60
2022/04/22 15:02:34;;;;;;;;;;;11.70;74.80;;;;;;20756097;28;19921;-61
2022/04/22 15:12:35;;;;;;;;;;;11.50;74.90;;;;;;20755601;28;19921;-60
2022/04/22 15:32:57;;;;;;;;;;;11.60;74.00;;;;;;20752507;28;20323;-59
2022/04/22 15:42:59;;;;;;;;;;;11.40;74.30;;;;;;20751604;28;19932;-63
2022/04/22 15:53:00;;;;;;;;;;;11.20;74.30;;;;;;20751825;28;20335;-62
2022/04/22 16:03:02;;;;;;;;;;;11.20;74.90;;;;;;20750698;28;19928;-63
2022/04/22 16:23:24;;;;;;;;;;;10.90;74.80;;;;;;20749213;28;19921;-61
2022/04/22 16:33:25;;;;;;;;;;;10.70;75.80;;;;;;20748048;28;19971;-64
2022/04/22 16:43:27;;;;;;;;;;;12.30;72.40;;;;;;20745762;28;19936;-65
2022/04/22 16:53:32;;;;;;;;;;;11.60;74.30;;;;;;20747332;28;19921;-61
2022/04/22 17:03:33;;;;;;;;;;;11.40;74.20;;;;;;20748058;28;20008;-62
2022/04/22 17:13:35;;;;;;;;;;;;;;;;;;20747061;28;20016;-58
2022/04/22 17:23:37;;;;;;;;;;;11.00;74.70;;;;;;20758474;28;19922;-60
2022/04/22 17:33:39;;;;;;;;;;;10.30;77.00;;;;;;20761379;28;20455;-58
2022/04/22 17:43:41;;;;;;;;;;;10.40;77.70;;;;;;20760819;28;19929;-61
2022/04/22 17:53:43;;;;;;;;;;;10.40;77.90;;;;;;20760888;28;19921;-65
2022/04/22 18:03:44;;;;;;;;;;;11.30;77.90;;;;;;20698573;28;19929;-55
2022/04/22 18:13:47;;;;;;;;;;;12.70;70.40;;;;;;20677325;28;19948;-55
2022/04/22 18:23:49;;;;;;;;;;;;;;;;;;20677199;28;19922;-55
2022/04/22 18:33:51;;;;;;;;;;;;;;;;;;20674614;28;19922;-62
2022/04/22 18:43:57;;;;;;;;;;;;;;;;;;20673173;28;19965;-58
2022/04/22 18:53:58;;;;;;;;;;;;;;;;;;20675071;28;20016;-60
2022/04/22 19:03:59;;;;;;;;;;;;;;;;;;20682915;28;20309;-58
2022/04/22 19:14:01;;;;;;;;;;;;;;;;;;20755934;28;20366;-56
2022/04/22 19:24:02;;;;;;;;;;;;;;;;;;20753991;28;19925;-61
2022/04/22 19:34:05;;;;;;;;;;;;;;;;;;20752747;28;20378;-62
2022/04/22 19:44:06;;;;;;;;;;;11.50;72.20;;;;;;20750955;28;19921;-61
2022/04/22 19:54:09;;;;;;;;;;;10.10;76.30;;;;;;20751841;28;19928;-69
2022/04/22 20:04:10;;;;;;;;;;;;;;;;;;20751897;28;20382;-63
2022/04/22 20:14:11;;;;;;;;;;;11.10;73.20;;;;;;20750307;28;20302;-63
2022/04/22 20:24:12;;;;;;;;;;;9.90;77.20;;;;;;20751003;28;20278;-65
2022/04/22 20:34:13;;;;;;;;;;;9.70;78.80;;;;;;20749551;28;19922;-65
2022/04/22 20:44:13;;;;;;;;;;;9.70;78.60;;;;;;20748219;28;19960;-64
2022/04/22 20:54:14;;;;;;;;;;;9.70;78.70;;;;;;20753869;28;19988;-64
2022/04/22 21:04:15;;;;;;;;;;;9.70;78.70;;;;;;20765291;28;19921;-62
2022/04/22 21:14:18;;;;;;;;;;;9.60;78.90;;;;;;20763610;28;19972;-65
2022/04/22 21:24:21;;;;;;;;;;;9.50;79.30;;;;;;20763261;28;19925;-64
2022/04/22 21:34:22;;;;;;;;;;;9.50;79.60;;;;;;20762412;28;20023;-66
2022/04/22 21:44:23;;;;;;;;;;;9.40;79.90;;;;;;20760731;28;19948;-63
2022/04/22 21:54:26;;;;;;;;;;;9.40;79.30;;;;;;20760773;28;19922;-65
2022/04/22 22:04:27;;;;;;;;;;;9.40;79.30;;;;;;20759902;28;19921;-65
2022/04/22 22:14:29;;;;;;;;;;;9.60;78.80;;;;;;20759615;28;20430;-65
2022/04/22 22:24:31;;;;;;;;;;;9.50;78.10;;;;;;20759489;28;20573;-66
2022/04/22 22:34:32;;;;;;;;;;;9.40;78.90;;;;;;20757602;28;19999;-63
2022/04/22 22:44:34;;;;;;;;;;;9.40;78.90;;;;;;20756257;28;19968;-64
2022/04/22 22:54:35;;;;;;;;;;;9.40;78.30;;;;;;20756051;28;19921;-61
2022/04/22 23:04:37;;;;;;;;;;;9.40;78.20;;;;;;20755049;28;19928;-62
2022/04/22 23:14:42;;;;;;;;;;;9.40;77.80;;;;;;20754111;28;19928;-65
2022/04/22 23:24:44;;;;;;;;;;;9.20;77.60;;;;;;20754611;28;20008;-63
2022/04/22 23:34:46;;;;;;;;;;;9.30;77.50;;;;;;20752723;28;19921;-61
2022/04/22 23:44:47;;;;;;;;;;;9.20;77.90;;;;;;20752124;28;20326;-64
2022/04/22 23:54:49;;;;;;;;;;;9.20;78.50;;;;;;20749824;28;19922;-63
